createdAt,value
2019-02-19T00:00:36.819Z,3.70
2019-02-19T00:03:06.387Z,3.70
2019-02-19T00:05:35.845Z,3.60
2019-02-19T00:08:04.990Z,3.70
2019-02-19T00:10:34.150Z,3.70
2019-02-19T00:13:03.412Z,3.50
2019-02-19T00:15:32.589Z,3.50
2019-02-19T00:18:01.720Z,3.40
2019-02-19T00:20:31.207Z,3.60
2019-02-19T00:23:00.374Z,3.60
2019-02-19T00:25:29.537Z,3.60
2019-02-19T00:27:58.762Z,3.50
2019-02-19T00:30:27.890Z,3.40
2019-02-19T00:32:57.147Z,3.40
2019-02-19T00:35:26.341Z,3.20
2019-02-19T00:37:55.492Z,3.40
2019-02-19T00:40:24.652Z,3.20
2019-02-19T00:42:54.201Z,3.20
2019-02-19T00:45:23.334Z,3.20
2019-02-19T00:47:52.484Z,3.20
2019-02-19T00:50:21.642Z,3.10
2019-02-19T00:52:50.833Z,3.30
2019-02-19T00:55:19.989Z,3.30
2019-02-19T00:57:49.364Z,3.10
2019-02-19T01:00:18.572Z,3.10
2019-02-19T01:02:47.732Z,3.00
2019-02-19T01:05:16.911Z,3.00
2019-02-19T01:07:46.088Z,3.00
2019-02-19T01:10:15.223Z,3.00
2019-02-19T01:12:44.384Z,3.10
2019-02-19T01:15:13.533Z,2.90
2019-02-19T01:17:42.779Z,3.00
2019-02-19T01:20:11.959Z,3.00
2019-02-19T01:22:50.457Z,3.00
2019-02-19T01:25:19.601Z,3.00
2019-02-19T01:27:48.760Z,2.80
2019-02-19T01:30:17.921Z,2.80
2019-02-19T01:32:47.082Z,2.60
2019-02-19T01:35:16.454Z,2.70
2019-02-19T01:37:45.584Z,2.90
2019-02-19T01:40:14.751Z,2.80
2019-02-19T01:42:43.904Z,3.00
2019-02-19T01:45:13.064Z,3.00
2019-02-19T01:47:42.216Z,3.20
2019-02-19T01:50:11.952Z,3.00
2019-02-19T01:52:41.306Z,3.10
2019-02-19T01:55:10.456Z,2.90
2019-02-19T01:57:39.617Z,2.70
2019-02-19T02:00:09.611Z,2.70
2019-02-19T02:02:38.804Z,2.80
2019-02-19T02:05:08.099Z,2.70
2019-02-19T02:07:37.245Z,2.50
2019-02-19T02:10:06.579Z,2.50
2019-02-19T02:12:35.740Z,2.40
2019-02-19T02:15:05.492Z,2.40
2019-02-19T02:17:34.627Z,2.40
2019-02-19T02:20:04.087Z,2.30
2019-02-19T02:22:33.217Z,2.30
2019-02-19T02:25:02.433Z,2.40
2019-02-19T02:27:31.565Z,2.40
2019-02-19T02:30:00.724Z,2.30
2019-02-19T02:32:29.851Z,2.20
2019-02-19T02:34:59.002Z,2.10
2019-02-19T02:44:38.591Z,2.20
2019-02-19T02:47:07.751Z,2.00
2019-02-19T02:49:36.889Z,2.10
2019-02-19T02:52:06.047Z,2.00
2019-02-19T02:54:35.262Z,2.20
2019-02-19T02:57:04.483Z,2.10
2019-02-19T02:59:33.626Z,2.20
2019-02-19T03:02:02.882Z,2.10
2019-02-19T03:04:32.103Z,2.10
2019-02-19T03:07:21.504Z,1.90
2019-02-19T03:09:50.638Z,2.10
2019-02-19T03:12:19.800Z,2.20
2019-02-19T03:14:48.965Z,2.10
2019-02-19T03:17:18.200Z,2.10
2019-02-19T03:19:47.417Z,2.10
2019-02-19T03:22:16.571Z,1.90
2019-02-19T03:24:45.861Z,2.00
2019-02-19T03:27:15.300Z,2.00
2019-02-19T03:29:44.482Z,1.90
2019-02-19T03:32:13.722Z,1.90
2019-02-19T03:34:42.866Z,1.80
2019-02-19T03:37:12.021Z,1.80
2019-02-19T03:39:41.168Z,1.80
2019-02-19T03:42:10.314Z,2.00
2019-02-19T03:44:39.582Z,2.00
2019-02-19T03:47:08.711Z,1.90
2019-02-19T03:49:37.897Z,1.90
2019-02-19T03:52:07.045Z,2.10
2019-02-19T03:54:36.247Z,2.10
2019-02-19T03:57:05.422Z,2.10
2019-02-19T03:59:34.669Z,2.00
2019-02-19T04:02:03.984Z,2.10
2019-02-19T04:04:33.607Z,2.00
2019-02-19T04:07:02.749Z,1.90
2019-02-19T04:09:31.916Z,2.00
2019-02-19T04:12:01.121Z,1.90
2019-02-19T04:14:30.496Z,1.90
2019-02-19T04:16:59.639Z,1.90
2019-02-19T04:19:28.861Z,1.80
2019-02-19T04:21:58.008Z,1.90
2019-02-19T04:24:27.173Z,2.00
2019-02-19T04:26:56.311Z,1.90
2019-02-19T04:29:25.556Z,1.80
2019-02-19T04:31:54.677Z,1.70
2019-02-19T04:34:23.847Z,1.60
2019-02-19T04:36:52.988Z,1.60
2019-02-19T04:39:22.294Z,1.70
2019-02-19T04:41:51.461Z,1.80
2019-02-19T04:44:20.592Z,1.80
2019-02-19T04:46:49.748Z,1.80
2019-02-19T04:49:18.895Z,1.70
2019-02-19T04:51:48.067Z,1.80
2019-02-19T04:54:17.200Z,1.80
2019-02-19T04:56:46.373Z,1.80
2019-02-19T04:59:15.523Z,1.80
2019-02-19T05:01:44.842Z,1.80
2019-02-19T05:04:13.973Z,1.70
2019-02-19T05:06:43.123Z,1.70
2019-02-19T05:09:12.271Z,1.80
2019-02-19T05:11:41.440Z,1.80
2019-02-19T05:14:10.588Z,1.80
2019-02-19T05:16:40.941Z,1.70
2019-02-19T05:19:10.421Z,1.80
2019-02-19T05:21:39.793Z,1.80
2019-02-19T05:24:09.067Z,1.60
2019-02-19T05:26:38.246Z,1.60
2019-02-19T05:29:07.419Z,1.60
2019-02-19T05:31:36.593Z,1.70
2019-02-19T05:34:05.728Z,1.70
2019-02-19T05:36:34.879Z,1.60
2019-02-19T05:39:05.253Z,1.70
2019-02-19T05:41:34.596Z,1.60
2019-02-19T05:44:03.754Z,1.70
2019-02-19T05:46:32.908Z,1.70
2019-02-19T05:49:02.064Z,1.50
2019-02-19T05:51:31.245Z,1.70
2019-02-19T05:54:00.393Z,1.80
2019-02-19T05:56:29.585Z,1.60
2019-02-19T05:58:58.725Z,1.60
2019-02-19T06:01:27.902Z,1.60
2019-02-19T06:03:57.046Z,1.70
2019-02-19T06:06:26.184Z,1.70
2019-02-19T06:08:55.348Z,1.80
2019-02-19T06:11:24.584Z,1.70
2019-02-19T06:13:53.773Z,1.70
2019-02-19T06:16:22.933Z,1.70
2019-02-19T06:18:52.118Z,1.80
2019-02-19T06:21:21.288Z,1.70
2019-02-19T06:23:52.594Z,1.70
2019-02-19T06:26:21.359Z,1.60
2019-02-19T06:28:50.517Z,1.50
2019-02-19T06:31:19.638Z,1.60
2019-02-19T06:33:48.812Z,1.70
2019-02-19T06:36:17.963Z,1.70
2019-02-19T06:38:47.137Z,1.90
2019-02-19T06:41:16.289Z,1.90
2019-02-19T06:43:45.757Z,1.80
2019-02-19T06:46:14.899Z,1.70
2019-02-19T06:48:44.056Z,1.90
2019-02-19T06:51:13.200Z,1.90
2019-02-19T06:53:42.451Z,2.00
2019-02-19T06:56:11.591Z,2.10
2019-02-19T06:58:40.760Z,2.10
2019-02-19T07:01:09.910Z,2.20
2019-02-19T07:03:53.740Z,2.20
2019-02-19T07:06:22.889Z,2.20
2019-02-19T07:08:52.060Z,2.40
2019-02-19T07:11:21.199Z,2.50
2019-02-19T07:13:50.357Z,2.50
2019-02-19T07:16:19.721Z,2.60
2019-02-19T07:18:48.885Z,2.80
2019-02-19T07:21:18.053Z,2.90
2019-02-19T07:23:47.230Z,2.80
2019-02-19T07:26:16.357Z,3.00
2019-02-19T07:28:45.502Z,3.10
2019-02-19T07:31:14.640Z,3.10
2019-02-19T07:33:43.790Z,3.30
2019-02-19T07:36:12.959Z,3.40
2019-02-19T07:38:42.141Z,3.60
2019-02-19T07:41:11.304Z,3.80
2019-02-19T07:43:40.785Z,3.80
2019-02-19T07:46:09.937Z,4.10
2019-02-19T07:48:39.085Z,4.40
2019-02-19T07:51:08.245Z,4.60
2019-02-19T07:53:37.388Z,4.50
2019-02-19T07:56:06.576Z,4.60
2019-02-19T07:58:35.740Z,4.60
2019-02-19T08:01:04.918Z,4.70
2019-02-19T08:03:34.051Z,4.60
2019-02-19T08:06:03.740Z,4.70
2019-02-19T08:08:32.897Z,4.70
2019-02-19T08:11:02.088Z,4.50
2019-02-19T08:13:31.423Z,4.40
2019-02-19T08:16:00.597Z,4.40
2019-02-19T08:18:29.748Z,4.50
2019-02-19T08:20:59.156Z,4.50
2019-02-19T08:23:29.872Z,4.60
2019-02-19T08:25:59.261Z,4.80
2019-02-19T08:28:28.379Z,4.80
2019-02-19T08:30:57.553Z,4.90
2019-02-19T08:33:26.736Z,5.10
2019-02-19T08:35:55.909Z,5.30
2019-02-19T08:38:44.228Z,5.60
2019-02-19T08:41:13.409Z,6.60
2019-02-19T08:43:42.588Z,8.70
2019-02-19T08:46:11.737Z,8.80
2019-02-19T08:48:40.985Z,7.80
2019-02-19T08:51:10.222Z,7.60
2019-02-19T08:53:39.384Z,7.20
2019-02-19T08:56:08.517Z,7.00
2019-02-19T08:58:37.989Z,6.70
2019-02-19T09:01:07.236Z,7.00
2019-02-19T09:03:36.569Z,7.40
2019-02-19T09:06:05.733Z,7.80
2019-02-19T09:08:35.322Z,8.00
2019-02-19T09:11:04.788Z,8.00
2019-02-19T09:13:34.460Z,7.70
2019-02-19T09:16:03.909Z,7.70
2019-02-19T09:18:33.080Z,7.90
2019-02-19T09:21:02.355Z,8.00
2019-02-19T09:23:31.520Z,8.70
2019-02-19T09:26:00.662Z,9.20
2019-02-19T09:28:29.859Z,10.00
2019-02-19T09:30:59.205Z,10.10
2019-02-19T09:33:28.444Z,10.00
2019-02-19T09:35:58.584Z,10.10
2019-02-19T09:38:27.817Z,9.80
2019-02-19T09:40:56.954Z,9.40
2019-02-19T09:43:26.122Z,9.30
2019-02-19T09:45:55.262Z,9.10
2019-02-19T09:48:24.421Z,9.10
2019-02-19T09:50:53.577Z,9.30
2019-02-19T09:53:22.727Z,9.50
2019-02-19T09:55:51.856Z,9.60
2019-02-19T09:58:21.933Z,9.50
2019-02-19T10:00:51.107Z,9.60
2019-02-19T10:03:20.670Z,9.40
2019-02-19T10:05:49.844Z,9.30
2019-02-19T10:08:18.995Z,9.30
2019-02-19T10:10:48.197Z,9.40
2019-02-19T10:13:17.433Z,9.40
2019-02-19T10:15:46.601Z,9.70
2019-02-19T10:18:15.850Z,9.90
2019-02-19T10:20:45.417Z,10.00
2019-02-19T10:23:14.653Z,9.90
2019-02-19T10:25:44.695Z,9.90
2019-02-19T10:28:14.137Z,9.80
2019-02-19T10:30:43.309Z,9.70
2019-02-19T10:33:12.457Z,9.60
2019-02-19T10:35:41.629Z,9.50
2019-02-19T10:38:11.967Z,9.40
2019-02-19T10:40:41.168Z,9.40
2019-02-19T10:43:10.679Z,9.70
2019-02-19T10:45:39.865Z,10.40
2019-02-19T10:48:18.966Z,11.60
2019-02-19T10:50:44.379Z,12.10
2019-02-19T10:53:13.521Z,12.20
2019-02-19T10:55:42.781Z,11.90
2019-02-19T10:58:12.065Z,11.60
2019-02-19T11:00:41.496Z,12.20
2019-02-19T11:03:10.642Z,13.70
2019-02-19T11:05:39.808Z,15.00
2019-02-19T11:08:08.978Z,17.40
2019-02-19T11:10:38.216Z,18.30
2019-02-19T11:13:07.389Z,17.00
2019-02-19T11:15:36.531Z,16.20
2019-02-19T11:18:05.717Z,15.20
2019-02-19T11:20:47.093Z,14.30
2019-02-19T11:23:16.249Z,13.70
2019-02-19T11:25:45.396Z,13.30
2019-02-19T11:28:14.576Z,12.90
2019-02-19T11:30:43.784Z,12.80
2019-02-19T11:33:13.130Z,12.80
2019-02-19T11:35:42.255Z,13.90
2019-02-19T11:38:11.432Z,17.10
2019-02-19T11:40:40.580Z,18.00
2019-02-19T11:43:09.736Z,19.20
2019-02-19T11:45:38.886Z,22.00
2019-02-19T11:48:08.053Z,23.00
2019-02-19T11:50:37.185Z,24.00
2019-02-19T11:53:06.439Z,23.90
2019-02-19T11:55:35.649Z,21.20
2019-02-19T11:58:04.888Z,21.00
2019-02-19T12:00:36.543Z,21.60
2019-02-19T12:03:05.772Z,22.40
2019-02-19T12:05:34.994Z,20.80
2019-02-19T12:08:04.170Z,18.30
2019-02-19T12:10:33.388Z,16.40
2019-02-19T12:13:02.840Z,15.60
2019-02-19T12:15:35.233Z,15.00
2019-02-19T12:18:02.981Z,14.30
2019-02-19T12:20:32.157Z,13.80
2019-02-19T12:23:01.403Z,13.20
2019-02-19T12:25:30.565Z,12.90
2019-02-19T12:27:59.812Z,12.80
2019-02-19T12:30:28.984Z,12.60
2019-02-19T12:32:58.218Z,12.90
2019-02-19T12:35:27.368Z,12.80
2019-02-19T12:37:56.520Z,12.50
2019-02-19T12:40:25.669Z,12.40
2019-02-19T12:42:54.895Z,12.40
2019-02-19T12:45:24.138Z,12.20
2019-02-19T12:47:53.431Z,12.00
2019-02-19T12:50:22.885Z,11.90
2019-02-19T12:52:52.037Z,11.90
2019-02-19T12:55:21.275Z,11.70
2019-02-19T12:57:50.429Z,11.70
2019-02-19T13:00:19.821Z,11.70
2019-02-19T13:02:48.959Z,11.70
2019-02-19T13:05:18.192Z,11.70
2019-02-19T13:07:47.360Z,11.60
2019-02-19T13:10:35.585Z,11.60
2019-02-19T13:13:04.746Z,11.60
2019-02-19T13:15:33.878Z,11.50
2019-02-19T13:18:03.143Z,11.40
2019-02-19T13:20:32.305Z,11.10
2019-02-19T13:23:01.661Z,10.90
2019-02-19T13:25:30.803Z,10.90
2019-02-19T13:27:59.974Z,10.90
2019-02-19T13:30:29.345Z,10.80
2019-02-19T13:32:58.513Z,10.80
2019-02-19T13:35:27.685Z,10.60
2019-02-19T13:37:56.842Z,10.60
2019-02-19T13:40:26.078Z,10.60
2019-02-19T13:42:55.258Z,10.60
2019-02-19T13:45:24.404Z,10.60
2019-02-19T13:47:53.595Z,10.70
2019-02-19T13:50:22.757Z,10.70
2019-02-19T13:53:04.163Z,10.70
2019-02-19T13:55:36.565Z,10.70
2019-02-19T13:58:05.765Z,10.60
2019-02-19T14:00:37.453Z,10.50
2019-02-19T14:03:06.741Z,10.50
2019-02-19T14:05:35.904Z,10.40
2019-02-19T14:08:14.035Z,10.30
2019-02-19T14:10:36.341Z,10.30
2019-02-19T14:13:05.758Z,10.20
2019-02-19T14:15:53.962Z,10.10
2019-02-19T14:18:45.200Z,10.10
2019-02-19T14:21:32.449Z,10.10
2019-02-19T14:24:24.103Z,10.00
2019-02-19T14:27:08.681Z,10.00
2019-02-19T14:29:55.392Z,10.00
2019-02-19T14:32:46.574Z,10.00
2019-02-19T14:35:33.662Z,10.00
2019-02-19T14:38:40.315Z,10.00
2019-02-19T14:41:27.445Z,9.90
2019-02-19T14:44:18.658Z,9.80
2019-02-19T14:47:06.869Z,9.80
2019-02-19T14:49:53.116Z,9.80
2019-02-19T14:52:44.380Z,9.80
2019-02-19T14:55:22.298Z,9.80
2019-02-19T14:58:03.712Z,9.70
2019-02-19T15:00:50.532Z,9.70
2019-02-19T15:03:50.882Z,9.70
2019-02-19T15:06:37.736Z,9.60
2019-02-19T15:09:29.451Z,9.70
2019-02-19T15:12:06.100Z,9.60
2019-02-19T15:14:55.594Z,9.60
2019-02-19T15:17:52.889Z,9.50
2019-02-19T15:20:43.912Z,9.50
2019-02-19T15:23:42.456Z,9.50
2019-02-19T15:26:48.364Z,9.50
2019-02-19T15:29:48.716Z,9.50
2019-02-19T15:32:42.747Z,9.50
2019-02-19T15:35:42.996Z,9.50
2019-02-19T15:38:40.057Z,9.50
2019-02-19T15:41:27.181Z,9.60
2019-02-19T15:44:05.139Z,9.60
2019-02-19T15:46:49.303Z,9.50
2019-02-19T15:49:47.781Z,9.50
2019-02-19T15:52:34.261Z,9.50
2019-02-19T15:55:34.564Z,9.50
2019-02-19T15:58:28.588Z,9.50
2019-02-19T16:01:15.736Z,9.50
2019-02-19T16:04:03.987Z,9.60
2019-02-19T16:07:04.338Z,9.60
2019-02-19T16:09:52.724Z,9.50
2019-02-19T16:12:37.090Z,9.50
2019-02-19T16:15:28.368Z,9.40
2019-02-19T16:18:15.896Z,9.40
2019-02-19T16:20:59.947Z,9.50
2019-02-19T16:23:51.349Z,9.40
2019-02-19T16:26:36.450Z,9.40
2019-02-19T16:29:30.487Z,9.50
2019-02-19T16:32:17.149Z,9.50
2019-02-19T16:35:08.132Z,9.50
2019-02-19T16:37:51.364Z,9.50
2019-02-19T16:40:42.587Z,9.40
2019-02-19T16:43:26.728Z,9.30
2019-02-19T16:46:09.725Z,9.30
2019-02-19T16:48:49.728Z,9.30
2019-02-19T16:51:39.400Z,9.20
2019-02-19T16:54:30.798Z,9.30
2019-02-19T16:57:34.074Z,9.30
2019-02-19T17:00:13.774Z,9.30
2019-02-19T17:03:20.017Z,9.20
2019-02-19T17:06:11.453Z,9.20
2019-02-19T17:09:00.487Z,9.10
2019-02-19T17:12:00.921Z,9.20
2019-02-19T17:15:07.474Z,9.10
2019-02-19T17:17:54.398Z,9.10
2019-02-19T17:20:50.445Z,9.00
2019-02-19T17:23:32.760Z,9.00
2019-02-19T17:26:12.623Z,8.90
2019-02-19T17:29:03.598Z,8.90
2019-02-19T17:31:54.815Z,8.90
2019-02-19T17:34:41.552Z,8.90
2019-02-19T17:37:19.804Z,8.90
2019-02-19T17:40:17.148Z,8.90
2019-02-19T17:43:05.363Z,9.00
2019-02-19T17:45:52.482Z,9.00
2019-02-19T17:48:40.085Z,8.90
2019-02-19T17:51:21.705Z,8.90
2019-02-19T17:54:08.775Z,8.90
2019-02-19T17:56:55.643Z,8.80
2019-02-19T18:00:02.239Z,8.80
2019-02-19T18:02:43.069Z,8.80
2019-02-19T18:05:34.243Z,8.80
2019-02-19T18:08:11.626Z,8.80
2019-02-19T18:10:50.129Z,8.70
2019-02-19T18:13:35.076Z,8.70
2019-02-19T18:16:26.062Z,8.70
2019-02-19T18:18:55.308Z,8.70
2019-02-19T18:21:24.470Z,8.70
2019-02-19T18:23:53.642Z,8.60
2019-02-19T18:26:22.806Z,8.60
2019-02-19T18:28:51.972Z,8.50
2019-02-19T18:31:21.435Z,8.60
2019-02-19T18:33:50.626Z,8.50
2019-02-19T18:36:19.778Z,8.50
2019-02-19T18:38:49.029Z,8.50
2019-02-19T18:41:18.283Z,8.50
2019-02-19T18:43:47.644Z,8.50
2019-02-19T18:46:16.829Z,8.50
2019-02-19T18:48:46.014Z,8.50
2019-02-19T18:51:16.994Z,8.50
2019-02-19T18:53:47.110Z,8.40
2019-02-19T18:56:16.291Z,8.50
2019-02-19T18:58:45.559Z,8.50
2019-02-19T19:01:14.800Z,8.40
2019-02-19T19:03:44.293Z,8.30
2019-02-19T19:06:13.468Z,8.30
2019-02-19T19:08:43.044Z,8.20
2019-02-19T19:11:12.211Z,8.20
2019-02-19T19:13:41.485Z,8.10
2019-02-19T19:16:11.024Z,8.00
2019-02-19T19:18:40.241Z,8.00
2019-02-19T19:21:09.495Z,7.90
2019-02-19T19:23:39.120Z,7.80
2019-02-19T19:26:08.316Z,7.70
2019-02-19T19:28:37.637Z,7.70
2019-02-19T19:31:06.867Z,7.60
2019-02-19T19:33:36.097Z,7.40
2019-02-19T19:36:05.361Z,7.20
2019-02-19T19:38:34.539Z,7.20
2019-02-19T19:41:03.724Z,7.10
2019-02-19T19:43:32.884Z,6.90
2019-02-19T19:46:02.210Z,6.80
2019-02-19T19:48:31.372Z,6.80
2019-02-19T19:51:00.638Z,6.60
2019-02-19T19:53:29.876Z,6.40
2019-02-19T19:55:59.105Z,6.40
2019-02-19T19:58:28.281Z,6.20
2019-02-19T20:00:57.610Z,6.10
2019-02-19T20:03:26.802Z,6.10
2019-02-19T20:05:56.205Z,6.10
2019-02-19T20:08:25.328Z,6.10
2019-02-19T20:10:54.589Z,5.90
2019-02-19T20:13:23.877Z,5.90
2019-02-19T20:15:53.112Z,5.80
2019-02-19T20:18:22.378Z,5.90
2019-02-19T20:20:51.549Z,5.90
2019-02-19T20:23:20.820Z,5.70
2019-02-19T20:25:50.114Z,5.80
2019-02-19T20:28:19.316Z,5.60
2019-02-19T20:30:48.474Z,5.60
2019-02-19T20:33:17.665Z,5.60
2019-02-19T20:35:47.005Z,5.50
2019-02-19T20:38:16.207Z,5.60
2019-02-19T20:40:45.456Z,5.60
2019-02-19T20:43:14.765Z,5.40
2019-02-19T20:45:43.954Z,5.30
2019-02-19T20:48:13.153Z,5.20
2019-02-19T20:50:42.355Z,5.20
2019-02-19T20:53:11.549Z,5.20
2019-02-19T20:55:40.703Z,5.10
2019-02-19T20:58:10.444Z,5.10
2019-02-19T21:00:39.681Z,5.00
2019-02-19T21:03:08.964Z,5.00
2019-02-19T21:05:38.117Z,5.10
2019-02-19T21:08:07.282Z,5.00
2019-02-19T21:10:36.627Z,5.00
2019-02-19T21:13:05.849Z,5.00
2019-02-19T21:15:35.059Z,4.80
2019-02-19T21:18:04.238Z,4.90
2019-02-19T21:20:33.522Z,4.80
2019-02-19T21:23:02.704Z,4.70
2019-02-19T21:25:32.063Z,4.70
2019-02-19T21:28:01.484Z,4.80
2019-02-19T21:30:30.772Z,4.70
2019-02-19T21:32:59.948Z,4.60
2019-02-19T21:35:29.321Z,4.50
2019-02-19T21:37:58.475Z,4.50
2019-02-19T21:40:27.651Z,4.50
2019-02-19T21:42:56.856Z,4.30
2019-02-19T21:45:26.360Z,4.40
2019-02-19T21:47:55.521Z,4.30
2019-02-19T21:50:24.785Z,4.30
2019-02-19T21:52:54.002Z,4.40
2019-02-19T21:55:23.160Z,4.30
2019-02-19T21:57:52.317Z,4.20
2019-02-19T22:00:22.028Z,4.30
2019-02-19T22:02:51.324Z,4.30
2019-02-19T22:05:20.489Z,4.20
2019-02-19T22:07:49.801Z,4.10
2019-02-19T22:10:19.113Z,4.10
2019-02-19T22:12:48.256Z,3.90
2019-02-19T22:15:17.419Z,3.70
2019-02-19T22:17:46.612Z,3.80
2019-02-19T22:20:36.268Z,3.70
2019-02-19T22:23:05.693Z,3.60
2019-02-19T22:25:34.853Z,3.70
2019-02-19T22:28:04.220Z,3.70
2019-02-19T22:30:33.504Z,3.60
2019-02-19T22:33:02.780Z,3.50
2019-02-19T22:35:31.930Z,3.50
2019-02-19T22:38:01.140Z,3.70
2019-02-19T22:40:30.314Z,3.60
2019-02-19T22:42:59.668Z,3.60
2019-02-19T22:45:28.816Z,3.50
2019-02-19T22:47:58.002Z,3.60
2019-02-19T22:50:27.135Z,3.70
2019-02-19T22:52:56.370Z,3.60
2019-02-19T22:55:34.788Z,3.60
2019-02-19T22:58:04.262Z,3.60
2019-02-19T23:00:52.960Z,3.60
2019-02-19T23:03:25.628Z,3.50
2019-02-19T23:05:54.801Z,3.60
2019-02-19T23:08:23.985Z,3.50
2019-02-19T23:10:53.112Z,3.60
2019-02-19T23:13:41.363Z,3.60
2019-02-19T23:16:10.516Z,3.60
2019-02-19T23:18:39.724Z,3.60
2019-02-19T23:21:09.078Z,3.40
2019-02-19T23:23:38.225Z,3.50
2019-02-19T23:26:07.370Z,3.60
2019-02-19T23:28:36.529Z,3.60
2019-02-19T23:31:05.699Z,3.40
2019-02-19T23:33:34.890Z,3.40
2019-02-19T23:36:08.620Z,3.30
2019-02-19T23:38:37.868Z,3.30
2019-02-19T23:41:07.212Z,3.30
2019-02-19T23:43:36.484Z,3.30
2019-02-19T23:46:05.669Z,3.20
2019-02-19T23:48:34.883Z,3.00
2019-02-19T23:51:04.033Z,2.80
2019-02-19T23:53:33.300Z,2.90
2019-02-19T23:56:02.541Z,2.90
2019-02-19T23:58:31.688Z,2.90
